createdAt,value
2023-05-23T00:02:08.227Z,6.50
2023-05-23T00:04:36.817Z,6.10
2023-05-23T00:07:04.460Z,4.40
2023-05-23T00:09:31.087Z,5.57
2023-05-23T00:11:57.856Z,6.25
2023-05-23T00:14:24.656Z,5.20
2023-05-23T00:16:51.824Z,5.30
2023-05-23T00:19:18.437Z,5.78
2023-05-23T00:21:50.938Z,7.53
2023-05-23T00:24:18.883Z,5.13
2023-05-23T00:26:46.578Z,4.65
2023-05-23T00:29:16.790Z,5.68
2023-05-23T00:31:46.573Z,5.40
2023-05-23T00:34:14.799Z,5.90
2023-05-23T00:36:43.654Z,5.93
2023-05-23T00:39:18.967Z,5.65
2023-05-23T00:41:49.162Z,6.78
2023-05-23T00:44:17.318Z,5.65
2023-05-23T00:46:47.524Z,4.80
2023-05-23T00:49:14.513Z,6.68
2023-05-23T00:51:43.127Z,5.93
2023-05-23T00:54:09.984Z,8.23
2023-05-23T00:56:38.664Z,6.63
2023-05-23T00:59:06.463Z,7.82
2023-05-23T01:01:33.534Z,5.13
2023-05-23T01:04:00.287Z,5.03
2023-05-23T01:06:30.559Z,6.03
2023-05-23T01:08:57.195Z,5.22
2023-05-23T01:11:33.145Z,4.70
2023-05-23T01:14:24.021Z,4.65
2023-05-23T01:17:01.633Z,7.60
2023-05-23T01:19:40.747Z,5.20
2023-05-23T01:22:16.799Z,5.85
2023-05-23T01:25:08.106Z,6.47
2023-05-23T01:27:53.057Z,4.80
2023-05-23T01:30:21.129Z,5.32
2023-05-23T01:32:50.782Z,4.22
2023-05-23T01:35:29.184Z,6.22
2023-05-23T01:37:56.326Z,4.72
2023-05-23T01:40:24.149Z,6.65
2023-05-23T01:42:51.927Z,5.68
2023-05-23T01:45:18.787Z,4.65
2023-05-23T01:47:49.207Z,5.80
2023-05-23T01:50:16.932Z,5.07
2023-05-23T01:52:43.712Z,5.28
2023-05-23T01:55:11.933Z,4.30
2023-05-23T01:57:39.012Z,6.18
2023-05-23T02:00:07.260Z,5.82
2023-05-23T02:02:34.446Z,4.63
2023-05-23T02:05:01.071Z,5.13
2023-05-23T02:07:27.865Z,4.82
2023-05-23T02:09:56.364Z,4.88
2023-05-23T02:12:23.258Z,5.35
2023-05-23T02:14:52.227Z,4.78
2023-05-23T02:17:18.887Z,5.35
2023-05-23T02:19:45.501Z,4.70
2023-05-23T02:22:12.032Z,4.93
2023-05-23T02:24:38.607Z,4.85
2023-05-23T02:27:05.706Z,6.10
2023-05-23T02:29:32.457Z,4.70
2023-05-23T02:31:59.239Z,5.60
2023-05-23T02:34:26.285Z,3.97
2023-05-23T02:36:52.836Z,5.70
2023-05-23T02:39:19.372Z,4.70
2023-05-23T02:41:45.899Z,4.70
2023-05-23T02:44:12.462Z,5.68
2023-05-23T02:46:39.117Z,5.00
2023-05-23T02:49:05.771Z,4.25
2023-05-23T02:51:32.626Z,5.00
2023-05-23T02:53:59.187Z,6.40
2023-05-23T02:56:26.948Z,4.03
2023-05-23T02:58:53.549Z,5.38
2023-05-23T03:01:20.264Z,5.65
2023-05-23T03:03:47.046Z,4.63
2023-05-23T03:06:14.544Z,5.28
2023-05-23T03:08:42.004Z,5.78
2023-05-23T03:11:08.689Z,4.82
2023-05-23T03:13:35.837Z,5.43
2023-05-23T03:16:02.748Z,6.30
2023-05-23T03:18:29.349Z,4.47
2023-05-23T03:20:55.933Z,6.03
2023-05-23T03:23:22.490Z,4.43
2023-05-23T03:25:49.395Z,5.45
2023-05-23T03:28:16.009Z,5.70
2023-05-23T03:30:42.596Z,5.40
2023-05-23T03:33:09.423Z,4.93
2023-05-23T03:35:36.048Z,5.80
2023-05-23T03:38:02.629Z,3.78
2023-05-23T03:40:29.197Z,5.65
2023-05-23T03:43:13.825Z,3.80
2023-05-23T03:45:40.777Z,4.15
2023-05-23T03:48:07.684Z,5.10
2023-05-23T03:50:34.414Z,6.57
2023-05-23T03:53:00.990Z,7.85
2023-05-23T03:55:27.614Z,6.72
2023-05-23T03:57:54.327Z,6.30
2023-05-23T04:00:20.959Z,6.55
2023-05-23T04:02:47.718Z,12.77
2023-05-23T04:05:14.408Z,8.95
2023-05-23T04:07:41.809Z,11.63
2023-05-23T04:10:09.406Z,7.22
2023-05-23T04:12:36.719Z,8.20
2023-05-23T04:15:04.029Z,10.57
2023-05-23T04:17:31.276Z,9.60
2023-05-23T04:19:58.207Z,13.80
2023-05-23T04:22:24.925Z,10.68
2023-05-23T04:24:51.640Z,12.77
2023-05-23T04:27:18.198Z,11.07
2023-05-23T04:29:46.860Z,12.70
2023-05-23T04:32:14.753Z,11.18
2023-05-23T04:34:41.339Z,9.65
2023-05-23T04:37:09.241Z,9.95
2023-05-23T04:39:35.850Z,11.85
2023-05-23T04:42:02.579Z,13.15
2023-05-23T04:44:30.249Z,13.82
2023-05-23T04:46:57.255Z,19.83
2023-05-23T04:49:23.889Z,18.17
2023-05-23T04:51:51.159Z,15.55
2023-05-23T04:54:17.747Z,10.93
2023-05-23T04:56:44.416Z,19.58
2023-05-23T04:59:11.539Z,14.50
2023-05-23T05:01:40.892Z,13.98
2023-05-23T05:04:07.849Z,23.15
2023-05-23T05:06:34.669Z,17.10
2023-05-23T05:09:01.282Z,16.10
2023-05-23T05:11:28.632Z,21.00
2023-05-23T05:13:55.363Z,23.17
2023-05-23T05:16:22.351Z,20.63
2023-05-23T05:18:48.950Z,12.10
2023-05-23T05:21:15.490Z,20.00
2023-05-23T05:23:42.091Z,16.77
2023-05-23T05:26:08.730Z,20.75
2023-05-23T05:28:35.336Z,15.00
2023-05-23T05:31:05.224Z,14.70
2023-05-23T05:33:36.084Z,15.02
2023-05-23T05:36:03.847Z,14.15
2023-05-23T05:38:30.688Z,15.63
2023-05-23T05:40:57.266Z,14.40
2023-05-23T05:43:23.969Z,16.13
2023-05-23T05:45:50.694Z,15.23
2023-05-23T05:48:17.643Z,15.23
2023-05-23T05:50:47.205Z,17.67
2023-05-23T05:53:14.251Z,20.77
2023-05-23T05:55:41.046Z,16.48
2023-05-23T05:58:07.676Z,13.68
2023-05-23T06:00:42.135Z,16.02
2023-05-23T06:03:09.314Z,14.05
2023-05-23T06:05:37.584Z,11.38
2023-05-23T06:08:04.878Z,16.00
2023-05-23T06:10:31.500Z,15.63
2023-05-23T06:12:59.712Z,11.23
2023-05-23T06:15:26.451Z,14.07
2023-05-23T06:17:53.204Z,12.40
2023-05-23T06:20:19.834Z,12.98
2023-05-23T06:22:46.647Z,14.70
2023-05-23T06:25:14.862Z,13.95
2023-05-23T06:27:41.431Z,14.35
2023-05-23T06:30:08.569Z,13.60
2023-05-23T06:32:35.214Z,12.68
2023-05-23T06:35:01.863Z,13.25
2023-05-23T06:37:28.465Z,13.07
2023-05-23T06:39:55.115Z,16.20
2023-05-23T06:42:21.689Z,14.82
2023-05-23T06:44:48.298Z,11.75
2023-05-23T06:47:14.898Z,12.15
2023-05-23T06:49:41.488Z,12.70
2023-05-23T06:52:08.045Z,14.95
2023-05-23T06:54:34.579Z,12.50
2023-05-23T06:57:01.223Z,15.38
2023-05-23T06:59:27.797Z,11.65
2023-05-23T07:01:54.350Z,13.43
2023-05-23T07:04:20.880Z,12.07
2023-05-23T07:06:47.596Z,13.20
2023-05-23T07:09:14.202Z,10.65
2023-05-23T07:11:41.241Z,10.63
2023-05-23T07:14:07.971Z,11.23
2023-05-23T07:16:34.665Z,11.38
2023-05-23T07:19:03.026Z,9.15
2023-05-23T07:21:29.648Z,8.82
2023-05-23T07:23:56.206Z,10.70
2023-05-23T07:26:22.785Z,9.85
2023-05-23T07:28:50.384Z,9.98
2023-05-23T07:31:17.130Z,8.50
2023-05-23T07:33:43.739Z,11.35
2023-05-23T07:36:11.517Z,11.55
2023-05-23T07:38:38.086Z,10.80
2023-05-23T07:41:11.569Z,9.00
2023-05-23T07:43:39.251Z,11.35
2023-05-23T07:46:05.905Z,11.07
2023-05-23T07:48:32.530Z,11.70
2023-05-23T07:50:59.256Z,8.40
2023-05-23T07:53:26.392Z,8.85
2023-05-23T07:55:53.019Z,10.02
2023-05-23T07:58:19.585Z,11.85
2023-05-23T08:00:46.214Z,9.07
2023-05-23T08:03:13.449Z,10.43
2023-05-23T08:05:40.293Z,12.18
2023-05-23T08:08:06.885Z,11.38
2023-05-23T08:10:33.585Z,13.60
2023-05-23T08:13:01.004Z,10.00
2023-05-23T08:15:28.852Z,9.63
2023-05-23T08:17:57.261Z,8.88
2023-05-23T08:20:30.874Z,10.73
2023-05-23T08:23:01.896Z,10.48
2023-05-23T08:25:32.426Z,8.27
2023-05-23T08:28:00.345Z,9.45
2023-05-23T08:30:28.142Z,7.60
2023-05-23T08:32:56.024Z,7.47
2023-05-23T08:35:23.072Z,11.25
2023-05-23T08:37:50.836Z,7.80
2023-05-23T08:40:22.613Z,8.57
2023-05-23T08:42:50.678Z,6.90
2023-05-23T08:45:18.231Z,10.40
2023-05-23T08:47:46.570Z,7.75
2023-05-23T08:50:16.080Z,7.60
2023-05-23T08:53:03.624Z,7.38
2023-05-23T08:55:32.552Z,9.32
2023-05-23T08:58:03.600Z,11.70
2023-05-23T09:00:30.316Z,7.35
2023-05-23T09:02:57.738Z,8.57
2023-05-23T09:05:26.390Z,8.02
2023-05-23T09:07:53.189Z,9.65
2023-05-23T09:10:22.790Z,8.73
2023-05-23T09:12:49.878Z,7.75
2023-05-23T09:15:17.388Z,11.27
2023-05-23T09:17:45.432Z,7.32
2023-05-23T09:20:15.420Z,8.07
2023-05-23T09:22:47.481Z,9.88
2023-05-23T09:25:14.470Z,8.52
2023-05-23T09:27:42.171Z,9.85
2023-05-23T09:30:10.728Z,7.05
2023-05-23T09:32:37.526Z,7.00
2023-05-23T09:35:06.364Z,7.97
2023-05-23T09:37:35.724Z,11.60
2023-05-23T09:40:10.453Z,6.93
2023-05-23T09:42:44.079Z,7.40
2023-05-23T09:45:11.846Z,5.53
2023-05-23T09:47:38.521Z,7.53
2023-05-23T09:50:05.777Z,5.88
2023-05-23T09:52:38.762Z,6.22
2023-05-23T09:55:06.789Z,8.13
2023-05-23T09:57:40.563Z,8.27
2023-05-23T10:00:14.121Z,7.55
2023-05-23T10:05:48.020Z,5.90
2023-05-23T10:08:36.698Z,6.18
2023-05-23T10:11:26.382Z,5.68
2023-05-23T10:13:53.728Z,7.82
2023-05-23T10:17:11.997Z,6.22
2023-05-23T10:19:47.502Z,6.90
2023-05-23T10:22:15.831Z,5.82
2023-05-23T10:24:44.776Z,6.75
2023-05-23T10:27:11.788Z,5.75
2023-05-23T10:29:38.765Z,5.20
2023-05-23T10:32:06.837Z,5.53
2023-05-23T10:35:10.683Z,6.18
2023-05-23T10:37:40.308Z,6.88
2023-05-23T10:40:38.822Z,6.75
2023-05-23T10:43:39.152Z,6.28
2023-05-23T10:46:08.834Z,4.97
2023-05-23T10:48:41.048Z,4.47
2023-05-23T10:51:09.414Z,4.45
2023-05-23T10:53:41.263Z,6.68
2023-05-23T10:56:09.638Z,4.93
2023-05-23T10:58:38.698Z,5.45
2023-05-23T11:01:13.713Z,5.28
2023-05-23T11:03:46.410Z,5.97
2023-05-23T11:06:29.673Z,7.85
2023-05-23T11:09:09.845Z,7.07
2023-05-23T11:11:54.752Z,4.57
2023-05-23T11:14:34.288Z,13.00
2023-05-23T11:17:15.048Z,4.20
2023-05-23T11:20:08.769Z,5.35
2023-05-23T11:22:36.590Z,5.00
2023-05-23T11:25:10.378Z,7.75
2023-05-23T11:27:39.227Z,4.93
2023-05-23T11:30:13.659Z,7.97
2023-05-23T11:32:41.557Z,4.47
2023-05-23T11:35:11.939Z,4.68
2023-05-23T11:37:39.676Z,6.03
2023-05-23T11:40:25.159Z,6.13
2023-05-23T11:42:54.134Z,4.38
2023-05-23T11:45:22.215Z,6.20
2023-05-23T11:47:48.988Z,8.23
2023-05-23T11:50:16.927Z,5.28
2023-05-23T11:52:43.671Z,3.47
2023-05-23T11:55:10.237Z,3.85
2023-05-23T11:57:39.928Z,6.00
2023-05-23T12:00:08.918Z,6.85
2023-05-23T12:02:42.316Z,4.30
2023-05-23T12:05:13.809Z,6.65
2023-05-23T12:07:48.771Z,3.67
2023-05-23T12:10:16.901Z,4.50
2023-05-23T12:12:44.833Z,6.05
2023-05-23T12:15:12.452Z,5.70
2023-05-23T12:17:40.175Z,6.10
2023-05-23T12:20:07.928Z,4.50
2023-05-23T12:22:35.053Z,5.93
2023-05-23T12:25:02.365Z,6.25
2023-05-23T12:27:31.430Z,6.72
2023-05-23T12:30:17.252Z,11.95
2023-05-23T12:32:45.878Z,6.55
2023-05-23T12:35:14.861Z,5.15
2023-05-23T12:37:48.521Z,4.50
2023-05-23T12:42:56.858Z,5.13
2023-05-23T12:45:30.868Z,5.07
2023-05-23T12:47:57.589Z,4.40
2023-05-23T12:50:24.398Z,8.20
2023-05-23T12:52:51.501Z,5.22
2023-05-23T12:55:18.274Z,4.10
2023-05-23T12:57:44.992Z,7.95
2023-05-23T13:00:12.548Z,3.63
2023-05-23T13:02:40.104Z,5.88
2023-05-23T13:05:07.450Z,5.10
2023-05-23T13:07:34.489Z,5.70
2023-05-23T13:10:02.600Z,3.90
2023-05-23T13:12:29.711Z,5.70
2023-05-23T13:14:57.950Z,4.18
2023-05-23T13:17:24.877Z,4.25
2023-05-23T13:19:51.801Z,4.05
2023-05-23T13:22:18.572Z,3.53
2023-05-23T13:24:46.211Z,5.97
2023-05-23T13:27:13.044Z,4.75
2023-05-23T13:29:40.012Z,4.88
2023-05-23T13:32:07.040Z,7.10
2023-05-23T13:34:37.297Z,7.18
2023-05-23T13:37:04.973Z,5.50
2023-05-23T13:39:31.870Z,4.32
2023-05-23T13:41:59.115Z,4.55
2023-05-23T13:44:25.809Z,9.30
2023-05-23T13:46:52.752Z,4.18
2023-05-23T13:49:19.505Z,3.65
2023-05-23T13:51:46.244Z,4.60
2023-05-23T13:54:14.071Z,7.78
2023-05-23T13:56:41.152Z,4.40
2023-05-23T13:59:07.851Z,5.93
2023-05-23T14:01:34.657Z,5.90
2023-05-23T14:04:01.588Z,4.28
2023-05-23T14:06:28.394Z,6.05
2023-05-23T14:08:56.031Z,4.63
2023-05-23T14:11:22.778Z,4.05
2023-05-23T14:13:49.546Z,4.13
2023-05-23T14:16:16.465Z,4.72
2023-05-23T14:18:43.786Z,4.45
2023-05-23T14:21:10.791Z,4.80
2023-05-23T14:23:37.404Z,6.05
2023-05-23T14:26:04.449Z,6.65
2023-05-23T14:28:31.619Z,5.30
2023-05-23T14:30:59.267Z,4.03
2023-05-23T14:33:26.302Z,6.25
2023-05-23T14:35:53.280Z,3.10
2023-05-23T14:38:20.397Z,3.95
2023-05-23T14:40:49.927Z,4.38
2023-05-23T14:43:17.172Z,5.18
2023-05-23T14:45:44.059Z,4.43
2023-05-23T14:48:11.692Z,3.20
2023-05-23T14:50:40.987Z,5.25
2023-05-23T14:53:07.708Z,8.25
2023-05-23T14:55:34.552Z,5.93
2023-05-23T14:58:01.572Z,3.58
2023-05-23T15:00:28.648Z,3.10
2023-05-23T15:02:55.823Z,4.18
2023-05-23T15:05:22.451Z,4.28
2023-05-23T15:07:49.372Z,4.57
2023-05-23T15:10:16.485Z,3.75
2023-05-23T15:12:43.977Z,4.13
2023-05-23T15:15:11.506Z,3.65
2023-05-23T15:17:38.266Z,5.03
2023-05-23T15:20:07.211Z,4.90
2023-05-23T15:22:39.512Z,4.18
2023-05-23T15:25:08.305Z,4.05
2023-05-23T15:27:35.099Z,3.75
2023-05-23T15:30:02.522Z,5.03
2023-05-23T15:32:29.529Z,5.10
2023-05-23T15:34:56.485Z,6.20
2023-05-23T15:37:24.249Z,4.88
2023-05-23T15:39:51.175Z,3.85
2023-05-23T15:42:20.429Z,3.35
2023-05-23T15:44:47.138Z,2.90
2023-05-23T15:47:15.274Z,5.35
2023-05-23T15:49:41.921Z,3.80
2023-05-23T15:52:09.056Z,9.00
2023-05-23T15:54:35.720Z,5.30
2023-05-23T15:57:02.450Z,4.88
2023-05-23T15:59:29.112Z,3.38
2023-05-23T16:01:56.963Z,4.32
2023-05-23T16:04:24.251Z,4.65
2023-05-23T16:06:51.765Z,5.03
2023-05-23T16:09:18.636Z,5.38
2023-05-23T16:11:45.411Z,6.53
2023-05-23T16:14:12.122Z,4.45
2023-05-23T16:16:38.881Z,3.45
2023-05-23T16:19:06.054Z,4.22
2023-05-23T16:21:33.353Z,5.15
2023-05-23T16:24:00.438Z,6.43
2023-05-23T16:26:28.264Z,4.80
2023-05-23T16:28:54.878Z,7.90
2023-05-23T16:31:27.154Z,6.13
2023-05-23T16:33:54.106Z,5.72
2023-05-23T16:36:21.105Z,6.28
2023-05-23T16:38:48.255Z,8.27
2023-05-23T16:41:18.245Z,8.88
2023-05-23T16:43:44.969Z,6.22
2023-05-23T16:46:11.869Z,7.03
2023-05-23T16:48:38.528Z,4.90
2023-05-23T16:51:06.383Z,5.68
2023-05-23T16:53:33.220Z,5.38
2023-05-23T16:55:59.914Z,6.70
2023-05-23T16:58:29.598Z,7.03
2023-05-23T17:00:56.648Z,4.72
2023-05-23T17:03:25.060Z,8.00
2023-05-23T17:05:54.072Z,8.82
2023-05-23T17:08:20.717Z,6.35
2023-05-23T17:10:47.529Z,4.75
2023-05-23T17:13:14.302Z,6.47
2023-05-23T17:15:41.213Z,5.88
2023-05-23T17:18:08.159Z,7.25
2023-05-23T17:20:34.858Z,7.80
2023-05-23T17:23:01.547Z,7.88
2023-05-23T17:25:28.528Z,7.65
2023-05-23T17:27:56.897Z,6.90
2023-05-23T17:30:23.669Z,7.40
2023-05-23T17:32:50.502Z,8.18
2023-05-23T17:35:17.458Z,10.85
2023-05-23T17:37:44.954Z,7.82
2023-05-23T17:40:12.887Z,9.75
2023-05-23T17:42:40.823Z,6.63
2023-05-23T17:45:09.813Z,8.90
2023-05-23T17:47:37.299Z,6.38
2023-05-23T17:50:05.004Z,7.72
2023-05-23T17:52:33.493Z,8.32
2023-05-23T17:55:00.622Z,7.18
2023-05-23T17:57:31.310Z,7.25
2023-05-23T17:59:59.303Z,8.73
2023-05-23T18:02:27.183Z,9.25
2023-05-23T18:04:54.631Z,9.63
2023-05-23T18:07:21.300Z,9.93
2023-05-23T18:09:49.127Z,8.88
2023-05-23T18:12:16.690Z,8.00
2023-05-23T18:14:44.484Z,6.63
2023-05-23T18:17:14.176Z,7.32
2023-05-23T18:19:42.267Z,10.65
2023-05-23T18:22:10.168Z,8.13
2023-05-23T18:24:37.593Z,8.73
2023-05-23T18:27:15.973Z,7.70
2023-05-23T18:29:44.199Z,9.07
2023-05-23T18:32:13.126Z,8.70
2023-05-23T18:34:40.154Z,8.15
2023-05-23T18:37:07.101Z,8.90
2023-05-23T18:39:34.038Z,7.95
2023-05-23T18:42:00.900Z,8.98
2023-05-23T18:44:28.709Z,7.70
2023-05-23T18:46:56.717Z,9.35
2023-05-23T18:49:23.569Z,9.10
2023-05-23T18:51:51.888Z,9.82
2023-05-23T18:54:18.852Z,7.55
2023-05-23T18:56:48.662Z,8.43
2023-05-23T18:59:16.932Z,8.10
2023-05-23T19:01:43.745Z,9.40
2023-05-23T19:04:12.359Z,9.75
2023-05-23T19:06:39.230Z,10.07
2023-05-23T19:09:10.212Z,8.90
2023-05-23T19:11:42.507Z,9.35
2023-05-23T19:14:10.339Z,10.18
2023-05-23T19:16:38.032Z,10.60
2023-05-23T19:19:06.259Z,8.88
2023-05-23T19:21:34.474Z,10.15
2023-05-23T19:24:02.371Z,8.57
2023-05-23T19:26:30.523Z,9.30
2023-05-23T19:29:10.141Z,8.52
2023-05-23T19:31:37.980Z,10.20
2023-05-23T19:34:06.550Z,10.52
2023-05-23T19:36:33.765Z,9.48
2023-05-23T19:39:01.443Z,11.15
2023-05-23T19:41:32.659Z,9.40
2023-05-23T19:43:59.882Z,10.38
2023-05-23T19:46:29.036Z,10.18
2023-05-23T19:49:00.032Z,11.75
2023-05-23T19:51:27.414Z,10.90
2023-05-23T19:53:55.053Z,10.95
2023-05-23T19:56:25.945Z,10.52
2023-05-23T19:58:52.671Z,9.68
2023-05-23T20:01:19.373Z,9.70
2023-05-23T20:03:46.152Z,9.82
2023-05-23T20:06:13.512Z,9.98
2023-05-23T20:08:40.400Z,13.07
2023-05-23T20:11:10.995Z,16.38
2023-05-23T20:13:39.113Z,16.00
2023-05-23T20:16:08.037Z,15.40
2023-05-23T20:18:36.399Z,14.55
2023-05-23T20:21:05.369Z,14.00
2023-05-23T20:23:32.226Z,13.02
2023-05-23T20:26:03.517Z,13.23
2023-05-23T20:28:31.886Z,15.93
2023-05-23T20:30:59.938Z,13.25
2023-05-23T20:33:26.813Z,13.57
2023-05-23T20:35:53.997Z,13.52
2023-05-23T20:38:20.681Z,15.57
2023-05-23T20:40:52.787Z,15.40
2023-05-23T20:43:22.232Z,16.23
2023-05-23T20:45:49.940Z,13.32
2023-05-23T20:48:17.041Z,12.20
2023-05-23T20:50:44.682Z,12.07
2023-05-23T20:53:11.914Z,10.90
2023-05-23T20:55:38.886Z,14.25
2023-05-23T20:58:07.390Z,12.07
2023-05-23T21:00:35.990Z,12.30
2023-05-23T21:03:03.053Z,11.35
2023-05-23T21:05:29.803Z,12.55
2023-05-23T21:07:56.543Z,16.00
2023-05-23T21:10:24.601Z,13.80
2023-05-23T21:12:51.712Z,11.05
2023-05-23T21:15:19.059Z,11.60
2023-05-23T21:17:47.062Z,13.15
2023-05-23T21:20:14.011Z,16.02
2023-05-23T21:22:41.231Z,13.40
2023-05-23T21:25:08.304Z,12.55
2023-05-23T21:27:34.981Z,12.52
2023-05-23T21:30:05.670Z,10.25
2023-05-23T21:32:33.046Z,13.68
2023-05-23T21:34:59.835Z,15.93
2023-05-23T21:37:26.764Z,15.23
2023-05-23T21:39:53.646Z,11.77
2023-05-23T21:42:20.972Z,13.30
2023-05-23T21:44:48.156Z,12.15
2023-05-23T21:47:14.953Z,14.13
2023-05-23T21:49:41.659Z,13.23
2023-05-23T21:52:08.328Z,9.75
2023-05-23T21:54:35.089Z,11.32
2023-05-23T21:57:01.843Z,12.25
2023-05-23T21:59:28.677Z,10.55
2023-05-23T22:01:55.589Z,13.80
2023-05-23T22:04:22.289Z,10.70
2023-05-23T22:06:49.077Z,12.35
2023-05-23T22:09:15.855Z,12.50
2023-05-23T22:11:43.134Z,11.02
2023-05-23T22:14:10.323Z,12.68
2023-05-23T22:16:40.548Z,12.10
2023-05-23T22:19:09.882Z,12.73
2023-05-23T22:21:36.909Z,11.05
2023-05-23T22:24:03.820Z,11.60
2023-05-23T22:26:30.746Z,12.35
2023-05-23T22:28:57.484Z,11.15
2023-05-23T22:31:24.459Z,11.48
2023-05-23T22:33:51.412Z,11.88
2023-05-23T22:36:18.326Z,11.90
2023-05-23T22:38:45.732Z,9.40
2023-05-23T22:41:12.352Z,9.07
2023-05-23T22:43:39.097Z,12.23
2023-05-23T22:46:06.248Z,11.32
2023-05-23T22:48:33.629Z,12.70
2023-05-23T22:51:02.079Z,11.75
2023-05-23T22:53:29.297Z,10.43
2023-05-23T22:55:56.115Z,10.80
2023-05-23T22:58:22.693Z,11.23
2023-05-23T23:00:49.311Z,11.10
2023-05-23T23:03:16.180Z,12.10
2023-05-23T23:05:42.997Z,12.18
2023-05-23T23:08:09.629Z,13.15
2023-05-23T23:10:36.288Z,10.73
2023-05-23T23:13:03.301Z,12.13
2023-05-23T23:15:30.196Z,10.05
2023-05-23T23:17:57.276Z,8.32
2023-05-23T23:20:24.020Z,10.60
2023-05-23T23:22:50.779Z,11.32
2023-05-23T23:25:18.988Z,10.57
2023-05-23T23:27:45.660Z,9.93
2023-05-23T23:30:12.547Z,10.50
2023-05-23T23:32:39.158Z,9.77
2023-05-23T23:35:06.267Z,9.45
2023-05-23T23:37:33.060Z,9.15
2023-05-23T23:39:59.620Z,9.57
2023-05-23T23:42:26.554Z,9.30
2023-05-23T23:44:53.134Z,8.10
2023-05-23T23:47:19.705Z,10.32
2023-05-23T23:49:46.230Z,11.50
2023-05-23T23:52:12.867Z,10.10
2023-05-23T23:54:39.459Z,11.52
2023-05-23T23:57:06.750Z,8.63
2023-05-23T23:59:33.322Z,8.45
